sensor_id;sensor_type;location;lat;lon;timestamp;pressure;altitude;pressure_sealevel;temperature;humidity
7168;BME280;3625;51.762;14.320;2023-02-18T05:11:29;100805.00;;;7.75;75.68
7168;BME280;3625;51.762;14.320;2023-02-18T05:14:00;100805.88;;;7.74;76.17
7168;BME280;3625;51.762;14.320;2023-02-18T05:16:47;100796.16;;;7.83;75.39
7168;BME280;3625;51.762;14.320;2023-02-18T05:19:16;100802.25;;;7.90;74.81
7168;BME280;3625;51.762;14.320;2023-02-18T05:21:48;100798.81;;;7.79;75.75
7168;BME280;3625;51.762;14.320;2023-02-18T05:24:22;100810.22;;;7.79;76.15
7168;BME280;3625;51.762;14.320;2023-02-18T05:27:13;100805.81;;;7.84;76.18
7168;BME280;3625;51.762;14.320;2023-02-18T05:29:47;100804.94;;;7.84;76.58
7168;BME280;3625;51.762;14.320;2023-02-18T05:32:33;100803.19;;;7.81;77.16
7168;BME280;3625;51.762;14.320;2023-02-18T05:35:20;100796.16;;;7.83;77.03
7168;BME280;3625;51.762;14.320;2023-02-18T05:38:13;100803.13;;;7.92;77.27
7168;BME280;3625;51.762;14.320;2023-02-18T05:41:18;100804.03;;;7.88;77.78
7168;BME280;3625;51.762;14.320;2023-02-18T05:44:01;100797.03;;;7.87;77.99
7168;BME280;3625;51.762;14.320;2023-02-18T05:46:50;100797.94;;;7.80;78.94
7168;BME280;3625;51.762;14.320;2023-02-18T05:49:45;100657.97;;;7.00;78.69
7168;BME280;3625;51.762;14.320;2023-02-18T05:52:38;100804.94;;;7.87;78.85
7168;BME280;3625;51.762;14.320;2023-02-18T05:55:16;100802.31;;;7.84;79.59
7168;BME280;3625;51.762;14.320;2023-02-18T05:57:53;100809.22;;;8.00;78.61
7168;BME280;3625;51.762;14.320;2023-02-18T06:00:26;100799.59;;;7.97;79.15
7168;BME280;3625;51.762;14.320;2023-02-18T06:03:05;100802.22;;;7.96;79.19
7168;BME280;3625;51.762;14.320;2023-02-18T06:05:34;100791.78;;;7.85;80.48
7168;BME280;3625;51.762;14.320;2023-02-18T06:08:06;100803.09;;;8.01;79.83
7168;BME280;3625;51.762;14.320;2023-02-18T06:10:35;100807.50;;;7.96;80.45
7168;BME280;3625;51.762;14.320;2023-02-18T06:13:06;100798.69;;;8.00;80.24
7168;BME280;3625;51.762;14.320;2023-02-18T06:15:37;100806.56;;;8.05;79.88
7168;BME280;3625;51.762;14.320;2023-02-18T06:18:09;100799.53;;;8.07;79.89
7168;BME280;3625;51.762;14.320;2023-02-18T06:20:42;100787.28;;;8.00;80.63
7168;BME280;3625;51.762;14.320;2023-02-18T06:23:32;100792.59;;;7.95;81.15
7168;BME280;3625;51.762;14.320;2023-02-18T06:26:17;100787.28;;;8.00;81.87
7168;BME280;3625;51.762;14.320;2023-02-18T06:28:50;100788.16;;;8.00;81.69
7168;BME280;3625;51.762;14.320;2023-02-18T06:31:26;100788.97;;;8.10;80.46
7168;BME280;3625;51.762;14.320;2023-02-18T06:34:11;100796.00;;;8.09;80.02
7168;BME280;3625;51.762;14.320;2023-02-18T06:36:43;100791.56;;;8.14;79.22
7168;BME280;3625;51.762;14.320;2023-02-18T06:39:16;100792.44;;;8.18;78.88
7168;BME280;3625;51.762;14.320;2023-02-18T06:41:49;100796.81;;;8.20;78.93
7168;BME280;3625;51.762;14.320;2023-02-18T06:44:18;100791.44;;;8.39;76.38
7168;BME280;3625;51.762;14.320;2023-02-18T06:47:00;100795.88;;;8.29;76.77
7168;BME280;3625;51.762;14.320;2023-02-18T06:49:36;100795.00;;;8.27;77.85
7168;BME280;3625;51.762;14.320;2023-02-18T06:52:09;100788.91;;;8.20;78.52
7168;BME280;3625;51.762;14.320;2023-02-18T06:54:39;100800.25;;;8.35;76.98
7168;BME280;3625;51.762;14.320;2023-02-18T06:57:14;100796.72;;;8.39;75.56
7168;BME280;3625;51.762;14.320;2023-02-18T06:59:51;100793.22;;;8.37;74.92
7168;BME280;3625;51.762;14.320;2023-02-18T07:02:41;100804.56;;;8.45;73.96
7168;BME280;3625;51.762;14.320;2023-02-18T07:05:19;100791.41;;;8.40;74.23
7168;BME280;3625;51.762;14.320;2023-02-18T07:07:51;100800.19;;;8.41;75.36
7168;BME280;3625;51.762;14.320;2023-02-18T07:10:20;100801.03;;;8.47;74.89
7168;BME280;3625;51.762;14.320;2023-02-18T07:12:54;100791.31;;;8.54;73.66
7168;BME280;3625;51.762;14.320;2023-02-18T07:15:56;100791.31;;;8.52;73.74
7168;BME280;3625;51.762;14.320;2023-02-18T07:18:40;100790.44;;;8.53;74.15
7168;BME280;3625;51.762;14.320;2023-02-18T07:22:20;100780.69;;;8.60;71.41
7168;BME280;3625;51.762;14.320;2023-02-18T07:24:50;100783.25;;;8.66;69.76
7168;BME280;3625;51.762;14.320;2023-02-18T07:27:20;100776.31;;;8.57;71.50
7168;BME280;3625;51.762;14.320;2023-02-18T07:29:57;100775.44;;;8.57;71.14
7168;BME280;3625;51.762;14.320;2023-02-18T07:32:26;100785.97;;;8.57;71.42
7168;BME280;3625;51.762;14.320;2023-02-18T07:35:00;100790.44;;;8.53;72.75
7168;BME280;3625;51.762;14.320;2023-02-18T07:37:31;100791.28;;;8.55;73.20
7168;BME280;3625;51.762;14.320;2023-02-18T07:40:04;100788.69;;;8.49;75.03
7168;BME280;3625;51.762;14.320;2023-02-18T07:42:45;100788.69;;;8.49;75.34
7168;BME280;3625;51.762;14.320;2023-02-18T07:45:15;100776.38;;;8.51;75.67
7168;BME280;3625;51.762;14.320;2023-02-18T07:47:54;100782.59;;;8.47;75.97
7168;BME280;3625;51.762;14.320;2023-02-18T07:50:29;100770.28;;;8.46;76.32
7168;BME280;3625;51.762;14.320;2023-02-18T07:53:04;100685.41;;;8.03;77.79
7168;BME280;3625;51.762;14.320;2023-02-18T07:55:36;100770.25;;;8.48;75.65
7168;BME280;3625;51.762;14.320;2023-02-18T07:58:28;100473.19;;;6.69;76.56
7168;BME280;3625;51.762;14.320;2023-02-18T08:00:58;100751.91;;;8.39;75.51
7168;BME280;3625;51.762;14.320;2023-02-18T08:03:30;100753.69;;;8.27;76.52
7168;BME280;3625;51.762;14.320;2023-02-18T08:06:14;100747.53;;;8.35;75.89
7168;BME280;3625;51.762;14.320;2023-02-18T08:08:48;100755.47;;;8.27;77.22
7168;BME280;3625;51.762;14.320;2023-02-18T08:11:19;100752.84;;;8.25;77.88
7168;BME280;3625;51.762;14.320;2023-02-18T08:13:48;100745.75;;;8.30;77.68
7168;BME280;3625;51.762;14.320;2023-02-18T08:16:20;100534.38;;;6.96;78.71
7168;BME280;3625;51.762;14.320;2023-02-18T08:19:03;100737.09;;;8.19;79.42
7168;BME280;3625;51.762;14.320;2023-02-18T08:21:36;100745.81;;;8.26;80.75
7168;BME280;3625;51.762;14.320;2023-02-18T08:24:06;100744.00;;;8.32;81.04
7168;BME280;3625;51.762;14.320;2023-02-18T08:26:37;100736.97;;;8.33;81.23
7168;BME280;3625;51.762;14.320;2023-02-18T08:29:25;100724.72;;;8.29;81.68
7168;BME280;3625;51.762;14.320;2023-02-18T08:31:55;100710.59;;;8.38;81.74
7168;BME280;3625;51.762;14.320;2023-02-18T08:34:27;100706.16;;;8.41;82.96
7168;BME280;3625;51.762;14.320;2023-02-18T08:37:04;100702.63;;;8.41;83.87
7168;BME280;3625;51.762;14.320;2023-02-18T08:39:38;100703.50;;;8.43;85.88
7168;BME280;3625;51.762;14.320;2023-02-18T08:42:07;100711.41;;;8.44;87.79
7168;BME280;3625;51.762;14.320;2023-02-18T08:44:37;100708.75;;;8.46;88.16
7168;BME280;3625;51.762;14.320;2023-02-18T08:47:09;100703.44;;;8.50;88.49
7168;BME280;3625;51.762;14.320;2023-02-18T08:49:58;100685.75;;;8.61;88.96
7168;BME280;3625;51.762;14.320;2023-02-18T08:52:28;100672.28;;;8.84;89.20
7168;BME280;3625;51.762;14.320;2023-02-18T08:54:57;100687.00;;;9.03;88.44
7168;BME280;3625;51.762;14.320;2023-02-18T08:57:27;100679.97;;;9.05;88.53
7168;BME280;3625;51.762;14.320;2023-02-18T08:59:56;100664.91;;;9.14;88.84
7168;BME280;3625;51.762;14.320;2023-02-18T09:02:28;100674.44;;;9.24;89.72
7168;BME280;3625;51.762;14.320;2023-02-18T09:05:03;100666.41;;;9.31;89.80
7168;BME280;3625;51.762;14.320;2023-02-18T09:07:44;100661.31;;;9.18;93.30
7168;BME280;3625;51.762;14.320;2023-02-18T09:10:18;100657.66;;;9.28;93.74
7168;BME280;3625;51.762;14.320;2023-02-18T09:12:48;100650.47;;;9.39;95.47
7168;BME280;3625;51.762;14.320;2023-02-18T09:15:30;100651.31;;;9.41;95.18
7168;BME280;3625;51.762;14.320;2023-02-18T09:18:10;100654.88;;;9.37;96.62
7168;BME280;3625;51.762;14.320;2023-02-18T09:20:39;100645.41;;;9.25;97.02
7168;BME280;3625;51.762;14.320;2023-02-18T09:23:12;100651.91;;;8.97;100.00
7168;BME280;3625;51.762;14.320;2023-02-18T09:25:45;100636.25;;;8.83;100.00
7168;BME280;3625;51.762;14.320;2023-02-18T09:28:22;100625.75;;;8.80;100.00
7168;BME280;3625;51.762;14.320;2023-02-18T09:30:55;100601.06;;;8.84;100.00
7168;BME280;3625;51.762;14.320;2023-02-18T09:33:24;100608.13;;;8.82;100.00
7168;BME280;3625;51.762;14.320;2023-02-18T09:35:57;100596.84;;;8.71;100.00
7168;BME280;3625;51.762;14.320;2023-02-18T09:38:37;100594.09;;;8.79;100.00
7168;BME280;3625;51.762;14.320;2023-02-18T09:41:26;100577.53;;;8.67;100.00
7168;BME280;3625;51.762;14.320;2023-02-18T09:44:04;100503.50;;;8.11;100.00
7168;BME280;3625;51.762;14.320;2023-02-18T09:46:50;100457.19;;;7.90;100.00
7168;BME280;3625;51.762;14.320;2023-02-18T09:49:26;100574.97;;;8.64;100.00
7168;BME280;3625;51.762;14.320;2023-02-18T09:52:10;100275.84;;;6.89;100.00
7168;BME280;3625;51.762;14.320;2023-02-18T09:54:41;100556.50;;;8.64;100.00
7168;BME280;3625;51.762;14.320;2023-02-18T09:57:28;100448.94;;;8.20;100.00
7168;BME280;3625;51.762;14.320;2023-02-18T10:00:15;100437.53;;;8.21;100.00
7168;BME280;3625;51.762;14.320;2023-02-18T10:02:59;100420.06;;;8.11;100.00
7168;BME280;3625;51.762;14.320;2023-02-18T10:05:31;100533.22;;;8.92;100.00
7168;BME280;3625;51.762;14.320;2023-02-18T10:08:06;100519.16;;;8.92;100.00
7168;BME280;3625;51.762;14.320;2023-02-18T10:10:44;100457.38;;;8.48;100.00
7168;BME280;3625;51.762;14.320;2023-02-18T10:13:22;100452.94;;;8.50;100.00
7168;BME280;3625;51.762;14.320;2023-02-18T10:15:58;100496.47;;;8.82;100.00
7168;BME280;3625;51.762;14.320;2023-02-18T10:18:33;100425.06;;;8.36;100.00
7168;BME280;3625;51.762;14.320;2023-02-18T10:21:13;100424.78;;;8.54;100.00
7168;BME280;3625;51.762;14.320;2023-02-18T10:23:56;100472.81;;;8.76;100.00
7168;BME280;3625;51.762;14.320;2023-02-18T10:26:30;100125.22;;;6.76;100.00
7168;BME280;3625;51.762;14.320;2023-02-18T10:29:23;100333.03;;;8.17;100.00
7168;BME280;3625;51.762;14.320;2023-02-18T10:32:15;100454.03;;;8.97;100.00
7168;BME280;3625;51.762;14.320;2023-02-18T10:34:48;100443.06;;;9.21;100.00
7168;BME280;3625;51.762;14.320;2023-02-18T10:37:55;100333.91;;;8.75;100.00
7168;BME280;3625;51.762;14.320;2023-02-18T10:41:00;100146.78;;;7.69;100.00
7168;BME280;3625;51.762;14.320;2023-02-18T10:50:00;100403.28;;;9.32;100.00
7168;BME280;3625;51.762;14.320;2023-02-18T11:05:55;100354.66;;;8.96;100.00
7168;BME280;3625;51.762;14.320;2023-02-18T11:08:42;100203.91;;;8.17;100.00
7168;BME280;3625;51.762;14.320;2023-02-18T11:11:30;100030.06;;;7.13;100.00
7168;BME280;3625;51.762;14.320;2023-02-18T11:15:30;100066.75;;;7.24;100.00
7168;BME280;3625;51.762;14.320;2023-02-18T11:19:05;100043.13;;;7.19;100.00
7168;BME280;3625;51.762;14.320;2023-02-18T11:22:39;100218.69;;;8.27;100.00
7168;BME280;3625;51.762;14.320;2023-02-18T11:25:34;100109.81;;;7.73;100.00
7168;BME280;3625;51.762;14.320;2023-02-18T11:28:40;100059.91;;;7.67;100.00
7168;BME280;3625;51.762;14.320;2023-02-18T11:31:21;99997.63;;;7.14;100.00
7168;BME280;3625;51.762;14.320;2023-02-18T11:34:26;100098.72;;;7.54;100.00
7168;BME280;3625;51.762;14.320;2023-02-18T11:37:25;100007.31;;;7.10;100.00
7168;BME280;3625;51.762;14.320;2023-02-18T11:41:36;100037.16;;;7.62;100.00
7168;BME280;3625;51.762;14.320;2023-02-18T11:45:33;100107.00;;;7.84;100.00
7168;BME280;3625;51.762;14.320;2023-02-18T12:04:27;99850.41;;;7.55;100.00
7168;BME280;3625;51.762;14.320;2023-02-18T12:15:11;99800.91;;;8.13;100.00
7168;BME280;3625;51.762;14.320;2023-02-18T12:18:31;100090.63;;;10.13;100.00
7168;BME280;3625;51.762;14.320;2023-02-18T12:22:01;100106.25;;;10.56;100.00
7168;BME280;3625;51.762;14.320;2023-02-18T12:25:23;100074.88;;;10.44;100.00
7168;BME280;3625;51.762;14.320;2023-02-18T12:28:11;99993.28;;;9.98;100.00
7168;BME280;3625;51.762;14.320;2023-02-18T12:34:50;99768.22;;;8.91;100.00
7168;BME280;3625;51.762;14.320;2023-02-18T12:37:44;99834.22;;;9.54;100.00
7168;BME280;3625;51.762;14.320;2023-02-18T12:40:51;99900.72;;;10.30;100.00
7168;BME280;3625;51.762;14.320;2023-02-18T12:43:40;99918.66;;;10.50;100.00
7168;BME280;3625;51.762;14.320;2023-02-18T12:46:48;99819.13;;;9.89;100.00
7168;BME280;3625;51.762;14.320;2023-02-18T12:54:08;100021.28;;;10.96;100.00
7168;BME280;3625;51.762;14.320;2023-02-18T13:04:01;99927.84;;;10.66;100.00
7168;BME280;3625;51.762;14.320;2023-02-18T13:07:16;99932.34;;;10.90;100.00
7168;BME280;3625;51.762;14.320;2023-02-18T13:10:16;99936.13;;;11.10;100.00
7168;BME280;3625;51.762;14.320;2023-02-18T13:13:08;99817.28;;;10.49;100.00
7168;BME280;3625;51.762;14.320;2023-02-18T13:15:45;99982.84;;;11.39;100.00
7168;BME280;3625;51.762;14.320;2023-02-18T13:18:24;99903.81;;;11.00;100.00
7168;BME280;3625;51.762;14.320;2023-02-18T13:21:02;100019.47;;;11.52;100.00
7168;BME280;3625;51.762;14.320;2023-02-18T13:23:59;100013.34;;;11.50;100.00
7168;BME280;3625;51.762;14.320;2023-02-18T13:27:02;99759.00;;;9.97;100.00
7168;BME280;3625;51.762;14.320;2023-02-18T13:29:52;99853.34;;;10.52;100.00
7168;BME280;3625;51.762;14.320;2023-02-18T13:32:36;99720.78;;;10.08;100.00
7168;BME280;3625;51.762;14.320;2023-02-18T13:35:21;99757.78;;;10.36;100.00
7168;BME280;3625;51.762;14.320;2023-02-18T13:38:25;99914.81;;;11.41;100.00
7168;BME280;3625;51.762;14.320;2023-02-18T13:41:03;99790.00;;;10.47;100.00
7168;BME280;3625;51.762;14.320;2023-02-18T13:43:35;100030.19;;;12.02;100.00
7168;BME280;3625;51.762;14.320;2023-02-18T13:46:11;99953.50;;;11.45;100.00
7168;BME280;3625;51.762;14.320;2023-02-18T13:48:47;100045.16;;;12.03;100.00
7168;BME280;3625;51.762;14.320;2023-02-18T13:51:41;99852.34;;;10.82;100.00
7168;BME280;3625;51.762;14.320;2023-02-18T13:54:24;99872.13;;;10.72;100.00
7168;BME280;3625;51.762;14.320;2023-02-18T14:00:45;99906.88;;;10.60;100.00
7168;BME280;3625;51.762;14.320;2023-02-18T14:03:34;100037.53;;;11.41;100.00
7168;BME280;3625;51.762;14.320;2023-02-18T14:06:16;100025.06;;;11.43;100.00
7168;BME280;3625;51.762;14.320;2023-02-18T14:08:46;99943.09;;;10.86;100.00
7168;BME280;3625;51.762;14.320;2023-02-18T14:11:40;99920.97;;;10.61;100.00
7168;BME280;3625;51.762;14.320;2023-02-18T14:14:37;100042.59;;;11.47;100.00
7168;BME280;3625;51.762;14.320;2023-02-18T14:17:29;100019.50;;;11.24;100.00
7168;BME280;3625;51.762;14.320;2023-02-18T14:20:33;100033.47;;;11.29;100.00
7168;BME280;3625;51.762;14.320;2023-02-18T14:23:42;100007.44;;;10.88;100.00
7168;BME280;3625;51.762;14.320;2023-02-18T14:26:23;100028.84;;;11.08;100.00
7168;BME280;3625;51.762;14.320;2023-02-18T14:28:59;100045.06;;;10.98;100.00
7168;BME280;3625;51.762;14.320;2023-02-18T14:31:43;99856.91;;;9.92;100.00
7168;BME280;3625;51.762;14.320;2023-02-18T14:34:52;100035.53;;;10.92;100.00
7168;BME280;3625;51.762;14.320;2023-02-18T14:37:56;100023.13;;;10.94;100.00
7168;BME280;3625;51.762;14.320;2023-02-18T14:40:55;100045.72;;;11.06;100.00
7168;BME280;3625;51.762;14.320;2023-02-18T14:43:46;100033.34;;;11.06;100.00
7168;BME280;3625;51.762;14.320;2023-02-18T14:46:33;100043.19;;;11.01;100.00
7168;BME280;3625;51.762;14.320;2023-02-18T14:49:34;99906.41;;;10.18;100.00
7168;BME280;3625;51.762;14.320;2023-02-18T14:52:11;100046.97;;;10.92;100.00
7168;BME280;3625;51.762;14.320;2023-02-18T14:54:45;99884.03;;;9.99;100.00
7168;BME280;3625;51.762;14.320;2023-02-18T14:57:17;100033.63;;;10.97;100.00
7168;BME280;3625;51.762;14.320;2023-02-18T14:59:48;100058.09;;;11.04;100.00
7168;BME280;3625;51.762;14.320;2023-02-18T15:02:28;99965.69;;;10.39;100.00
7168;BME280;3625;51.762;14.320;2023-02-18T15:05:16;100058.09;;;11.04;100.00
7168;BME280;3625;51.762;14.320;2023-02-18T15:07:56;100011.13;;;10.82;100.00
7168;BME280;3625;51.762;14.320;2023-02-18T15:10:39;100062.84;;;10.92;100.00
7168;BME280;3625;51.762;14.320;2023-02-18T15:13:18;99777.16;;;9.18;100.00
7168;BME280;3625;51.762;14.320;2023-02-18T15:15:51;100053.53;;;10.81;100.00
7168;BME280;3625;51.762;14.320;2023-02-18T15:18:31;99930.47;;;10.07;100.00
7168;BME280;3625;51.762;14.320;2023-02-18T15:21:03;100049.03;;;10.83;100.00
7168;BME280;3625;51.762;14.320;2023-02-18T15:23:37;99823.41;;;9.32;100.00
7168;BME280;3625;51.762;14.320;2023-02-18T15:26:13;99881.19;;;9.75;100.00
7168;BME280;3625;51.762;14.320;2023-02-18T15:28:55;100049.13;;;10.49;100.00
7168;BME280;3625;51.762;14.320;2023-02-18T15:31:37;100057.34;;;10.71;100.00
7168;BME280;3625;51.762;14.320;2023-02-18T15:34:32;100069.56;;;10.75;100.00
7168;BME280;3625;51.762;14.320;2023-02-18T15:37:05;99929.28;;;9.87;100.00
7168;BME280;3625;51.762;14.320;2023-02-18T15:39:43;100059.81;;;10.77;100.00
7168;BME280;3625;51.762;14.320;2023-02-18T15:42:25;99946.72;;;9.94;100.00
7168;BME280;3625;51.762;14.320;2023-02-18T15:45:01;99818.66;;;9.13;100.00
7168;BME280;3625;51.762;14.320;2023-02-18T15:47:38;99723.72;;;8.46;100.00
7168;BME280;3625;51.762;14.320;2023-02-18T15:50:18;100074.06;;;10.40;100.00
7168;BME280;3625;51.762;14.320;2023-02-18T15:52:48;99912.94;;;9.40;100.00
7168;BME280;3625;51.762;14.320;2023-02-18T15:55:40;100069.88;;;10.33;100.00
7168;BME280;3625;51.762;14.320;2023-02-18T15:58:20;99981.34;;;9.83;100.00
7168;BME280;3625;51.762;14.320;2023-02-18T16:00:53;99840.00;;;9.03;100.00
7168;BME280;3625;51.762;14.320;2023-02-18T16:03:25;99850.63;;;9.00;100.00
7168;BME280;3625;51.762;14.320;2023-02-18T16:06:21;99900.88;;;9.31;100.00
7168;BME280;3625;51.762;14.320;2023-02-18T16:08:57;100067.94;;;10.38;100.00
7168;BME280;3625;51.762;14.320;2023-02-18T16:11:42;99989.31;;;9.81;100.00
7168;BME280;3625;51.762;14.320;2023-02-18T16:15:02;100086.53;;;10.37;100.00
7168;BME280;3625;51.762;14.320;2023-02-18T16:17:37;100093.44;;;10.41;100.00
7168;BME280;3625;51.762;14.320;2023-02-18T16:20:23;100093.47;;;10.39;100.00
7168;BME280;3625;51.762;14.320;2023-02-18T16:23:01;99988.81;;;9.67;100.00
7168;BME280;3625;51.762;14.320;2023-02-18T16:25:42;99860.88;;;9.13;100.00
7168;BME280;3625;51.762;14.320;2023-02-18T16:28:15;100108.13;;;10.52;100.00
7168;BME280;3625;51.762;14.320;2023-02-18T16:30:46;100113.41;;;10.52;100.00
7168;BME280;3625;51.762;14.320;2023-02-18T16:33:15;100107.75;;;10.34;100.00
7168;BME280;3625;51.762;14.320;2023-02-18T16:35:45;99974.34;;;9.48;100.00
7168;BME280;3625;51.762;14.320;2023-02-18T16:38:21;100129.75;;;10.36;100.00
7168;BME280;3625;51.762;14.320;2023-02-18T16:40:54;100061.72;;;10.07;100.00
7168;BME280;3625;51.762;14.320;2023-02-18T16:43:26;100143.00;;;10.34;100.00
7168;BME280;3625;51.762;14.320;2023-02-18T16:46:07;100105.63;;;10.12;100.00
7168;BME280;3625;51.762;14.320;2023-02-18T16:48:39;100115.09;;;10.23;100.00
7168;BME280;3625;51.762;14.320;2023-02-18T16:51:14;100147.34;;;10.37;100.00
7168;BME280;3625;51.762;14.320;2023-02-18T16:53:53;100165.44;;;10.52;100.00
7168;BME280;3625;51.762;14.320;2023-02-18T16:56:25;100148.88;;;10.45;100.00
7168;BME280;3625;51.762;14.320;2023-02-18T16:58:54;100173.00;;;10.66;100.00
7168;BME280;3625;51.762;14.320;2023-02-18T17:01:28;100167.94;;;10.56;100.00
7168;BME280;3625;51.762;14.320;2023-02-18T17:04:05;100018.91;;;9.60;100.00
7168;BME280;3625;51.762;14.320;2023-02-18T17:06:34;100199.06;;;10.47;100.00
7168;BME280;3625;51.762;14.320;2023-02-18T17:09:11;100194.41;;;10.56;100.00
7168;BME280;3625;51.762;14.320;2023-02-18T17:11:44;100190.09;;;10.54;100.00
7168;BME280;3625;51.762;14.320;2023-02-18T17:14:17;100197.94;;;10.55;100.00
7168;BME280;3625;51.762;14.320;2023-02-18T17:16:50;100161.00;;;10.20;100.00
7168;BME280;3625;51.762;14.320;2023-02-18T17:19:22;100232.31;;;10.57;100.00
7168;BME280;3625;51.762;14.320;2023-02-18T17:21:52;100226.81;;;10.65;100.00
7168;BME280;3625;51.762;14.320;2023-02-18T17:24:23;100234.03;;;10.58;100.00
7168;BME280;3625;51.762;14.320;2023-02-18T17:26:52;100233.41;;;10.48;100.00
7168;BME280;3625;51.762;14.320;2023-02-18T17:29:21;100244.16;;;10.42;100.00
7168;BME280;3625;51.762;14.320;2023-02-18T17:31:53;100237.94;;;10.43;100.00
7168;BME280;3625;51.762;14.320;2023-02-18T17:34:29;100256.66;;;10.36;100.00
7168;BME280;3625;51.762;14.320;2023-02-18T17:36:59;100247.91;;;10.32;100.00
7168;BME280;3625;51.762;14.320;2023-02-18T17:39:33;100254.31;;;10.24;100.00
7168;BME280;3625;51.762;14.320;2023-02-18T17:42:02;100268.19;;;10.32;100.00
7168;BME280;3625;51.762;14.320;2023-02-18T17:44:31;100273.63;;;10.27;100.00
7168;BME280;3625;51.762;14.320;2023-02-18T17:47:00;100285.88;;;10.30;100.00
7168;BME280;3625;51.762;14.320;2023-02-18T17:49:29;100272.72;;;10.28;100.00
7168;BME280;3625;51.762;14.320;2023-02-18T17:52:02;100271.97;;;10.21;100.00
7168;BME280;3625;51.762;14.320;2023-02-18T17:54:34;100282.41;;;10.28;100.00
7168;BME280;3625;51.762;14.320;2023-02-18T17:57:10;100285.34;;;10.14;100.00
7168;BME280;3625;51.762;14.320;2023-02-18T17:59:42;100294.81;;;10.24;100.00
7168;BME280;3625;51.762;14.320;2023-02-18T18:02:26;100031.66;;;8.67;100.00
7168;BME280;3625;51.762;14.320;2023-02-18T18:05:03;100305.13;;;10.36;100.00
7168;BME280;3625;51.762;14.320;2023-02-18T18:07:35;100313.16;;;10.32;100.00
7168;BME280;3625;51.762;14.320;2023-02-18T18:10:12;100312.44;;;10.25;100.00
7168;BME280;3625;51.762;14.320;2023-02-18T18:12:43;100311.03;;;10.09;100.00
7168;BME280;3625;51.762;14.320;2023-02-18T18:15:25;100265.31;;;9.65;100.00
7168;BME280;3625;51.762;14.320;2023-02-18T18:18:06;100308.13;;;9.79;100.00
7168;BME280;3625;51.762;14.320;2023-02-18T18:20:44;100318.72;;;9.78;100.00
7168;BME280;3625;51.762;14.320;2023-02-18T18:23:17;100232.66;;;9.26;100.00
7168;BME280;3625;51.762;14.320;2023-02-18T18:25:58;100334.56;;;9.79;100.00
7168;BME280;3625;51.762;14.320;2023-02-18T18:28:30;100339.72;;;9.86;100.00
7168;BME280;3625;51.762;14.320;2023-02-18T18:31:02;100342.44;;;9.82;100.00
7168;BME280;3625;51.762;14.320;2023-02-18T18:33:47;100345.97;;;9.81;100.00
7168;BME280;3625;51.762;14.320;2023-02-18T18:36:20;100344.28;;;9.77;100.00
7168;BME280;3625;51.762;14.320;2023-02-18T18:38:51;100341.75;;;9.73;100.00
7168;BME280;3625;51.762;14.320;2023-02-18T18:41:25;100350.84;;;9.60;100.00
7168;BME280;3625;51.762;14.320;2023-02-18T18:43:56;100360.44;;;9.62;100.00
7168;BME280;3625;51.762;14.320;2023-02-18T18:46:32;100371.91;;;9.61;100.00
7168;BME280;3625;51.762;14.320;2023-02-18T18:49:09;100384.25;;;9.61;100.00
7168;BME280;3625;51.762;14.320;2023-02-18T18:51:40;100384.31;;;9.58;100.00
7168;BME280;3625;51.762;14.320;2023-02-18T18:54:14;100239.94;;;8.69;100.00
7168;BME280;3625;51.762;14.320;2023-02-18T18:56:47;100364.25;;;9.49;100.00
7168;BME280;3625;51.762;14.320;2023-02-18T18:59:18;100388.06;;;9.46;100.00
7168;BME280;3625;51.762;14.320;2023-02-18T19:01:58;100100.34;;;7.62;100.00
7168;BME280;3625;51.762;14.320;2023-02-18T19:04:30;100400.66;;;9.32;100.00
7168;BME280;3625;51.762;14.320;2023-02-18T19:07:06;100394.31;;;9.42;100.00
7168;BME280;3625;51.762;14.320;2023-02-18T19:09:38;100398.75;;;9.38;100.00
7168;BME280;3625;51.762;14.320;2023-02-18T19:12:13;100400.53;;;9.38;100.00
7168;BME280;3625;51.762;14.320;2023-02-18T19:14:43;100394.38;;;9.37;100.00
7168;BME280;3625;51.762;14.320;2023-02-18T19:17:14;100408.44;;;9.39;100.00
7168;BME280;3625;51.762;14.320;2023-02-18T19:19:46;100397.88;;;9.38;100.00
7168;BME280;3625;51.762;14.320;2023-02-18T19:22:17;100397.03;;;9.36;100.00
7168;BME280;3625;51.762;14.320;2023-02-18T19:24:48;100408.63;;;9.29;100.00
7168;BME280;3625;51.762;14.320;2023-02-18T19:27:18;100407.75;;;9.27;100.00
7168;BME280;3625;51.762;14.320;2023-02-18T19:29:47;100405.34;;;9.16;100.00
7168;BME280;3625;51.762;14.320;2023-02-18T19:32:21;100420.94;;;9.28;100.00
7168;BME280;3625;51.762;14.320;2023-02-18T19:34:53;100421.78;;;9.32;100.00
7168;BME280;3625;51.762;14.320;2023-02-18T19:37:23;100422.53;;;9.37;100.00
7168;BME280;3625;51.762;14.320;2023-02-18T19:39:55;100427.81;;;9.37;100.00
7168;BME280;3625;51.762;14.320;2023-02-18T19:42:34;100426.94;;;9.36;100.00
7168;BME280;3625;51.762;14.320;2023-02-18T19:45:05;100433.84;;;9.43;100.00
7168;BME280;3625;51.762;14.320;2023-02-18T19:47:39;100439.97;;;9.47;100.00
7168;BME280;3625;51.762;14.320;2023-02-18T19:50:15;100444.25;;;9.53;100.00
7168;BME280;3625;51.762;14.320;2023-02-18T19:52:44;100443.47;;;9.48;100.00
7168;BME280;3625;51.762;14.320;2023-02-18T19:55:16;100456.66;;;9.49;100.00
7168;BME280;3625;51.762;14.320;2023-02-18T19:57:48;100459.47;;;9.40;100.00
7168;BME280;3625;51.762;14.320;2023-02-18T20:00:25;100469.34;;;9.29;100.00
7168;BME280;3625;51.762;14.320;2023-02-18T20:02:54;100470.38;;;9.19;100.00
7168;BME280;3625;51.762;14.320;2023-02-18T20:05:34;100466.03;;;9.16;100.00
7168;BME280;3625;51.762;14.320;2023-02-18T20:08:11;100493.44;;;9.07;100.00
7168;BME280;3625;51.762;14.320;2023-02-18T20:10:54;100505.84;;;8.99;100.00
7168;BME280;3625;51.762;14.320;2023-02-18T20:13:25;100485.84;;;8.85;100.00
7168;BME280;3625;51.762;14.320;2023-02-18T20:15:56;100494.66;;;8.85;100.00
7168;BME280;3625;51.762;14.320;2023-02-18T20:18:26;100485.13;;;8.75;100.00
7168;BME280;3625;51.762;14.320;2023-02-18T20:21:01;100487.94;;;8.64;100.00
7168;BME280;3625;51.762;14.320;2023-02-18T20:23:33;100487.97;;;8.61;100.00
7168;BME280;3625;51.762;14.320;2023-02-18T20:26:21;100503.00;;;8.55;100.00